Campanya meteocatpedra

Dades de l'estació automàtica el Canós

?
?
Resum diari 21:30 TU
Dades diàries de l'estació meteorològica
Temperatura mitjana 23.3 °C
Temperatura màxima 30.4 °C 13:08 TU
Temperatura mínima 16.1 °C 4:04 TU
Humitat relativa mitjana 65%
Precipitació acumulada 0.0 mm
Ratxa màxima del vent (2 m) 29.5 km/h - 255º 14:04 TU
Irradiació solar global 24.3 MJ/m2

El tram horari està expressat en Temps Universal (TU). Cal sumar una hora en horari d'hivern i dues en horari d'estiu per passar a l'hora oficial.

el Canós

Metadades estació meteorol´gica
Municipi Els Plans de Sió
Comarca Segarra
Altitud 429 m
Data alta 22.10.1988
Estat actual Operativa
Dades de període
Període
TU
TM
°C
TX
°C
TN
°C
HRM
%
PPT
mm
VVM (2 m)
km/h
DVM (2 m)
graus
VVX (2 m)
km/h
RS
W/m2
00:00 - 00:30 18.4 18.6 18.1 80 0.0 0.4 107 2.5 0
00:30 - 01:00 17.9 18.0 17.8 82 0.0 0.4 97 2.9 0
01:00 - 01:30 17.9 18.0 17.8 83 0.0 0.4 92 3.2 0
01:30 - 02:00 17.4 17.8 17.0 84 0.0 1.1 37 4.3 0
02:00 - 02:30 17.1 17.2 17.0 85 0.0 0.4 107 2.5 0
02:30 - 03:00 16.8 17.2 16.4 86 0.0 0.4 103 2.2 0
03:00 - 03:30 16.3 16.4 16.3 88 0.0 0.4 119 2.2 0
03:30 - 04:00 16.3 16.5 16.1 87 0.0 0.4 116 2.5 0
04:00 - 04:30 16.2 16.6 16.1 88 0.0 1.4 138 7.2 2
04:30 - 05:00 16.6 17.0 16.3 86 0.0 2.5 137 9.7 18
05:00 - 05:30 17.2 17.7 16.9 85 0.0 1.8 123 8.3 35
05:30 - 06:00 18.6 19.8 17.7 81 0.0 1.1 95 5.8 61
06:00 - 06:30 20.6 21.4 19.9 71 0.0 1.4 120 6.1 109
06:30 - 07:00 21.5 21.9 21.3 65 0.0 1.4 153 5.4 175
07:00 - 07:30 22.5 22.8 21.9 62 0.0 1.1 110 4.7 239
07:30 - 08:00 23.0 23.2 22.9 61 0.0 2.5 330 9.7 230
08:00 - 08:30 23.8 24.2 23.1 59 0.0 4.3 318 9.7 561
08:30 - 09:00 24.5 25.4 23.9 58 0.0 5.0 242 15.8 539
09:00 - 09:30 25.1 26.5 24.4 57 0.0 6.1 263 15.1 642
09:30 - 10:00 25.4 26.3 24.8 57 0.0 6.8 276 16.6 717
10:00 - 10:30 25.9 26.6 25.4 55 0.0 6.8 262 18.0 753
10:30 - 11:00 26.4 27.5 25.9 53 0.0 4.7 227 13.3 638
11:00 - 11:30 27.4 28.3 26.5 50 0.0 6.5 275 16.2 969
11:30 - 12:00 28.2 29.0 27.6 47 0.0 5.8 257 23.4 970
12:00 - 12:30 28.8 29.4 28.4 45 0.0 7.9 271 21.6 992
12:30 - 13:00 29.1 29.7 28.3 44 0.0 7.6 267 19.1 874
13:00 - 13:30 29.7 30.4 29.2 42 0.0 10.1 270 22.0 928
13:30 - 14:00 29.5 30.1 29.0 43 0.0 8.6 275 19.4 634
14:00 - 14:30 29.1 29.9 28.5 46 0.0 10.8 227 29.5 498
14:30 - 15:00 28.2 28.7 27.9 50 0.0 8.3 206 18.7 332
15:00 - 15:30 29.0 29.8 28.4 47 0.0 9.4 214 20.5 512
15:30 - 16:00 29.4 30.3 29.1 46 0.0 9.7 211 27.7 562
16:00 - 16:30 28.9 29.5 28.3 48 0.0 8.3 201 19.1 487
16:30 - 17:00 27.4 28.1 27.1 53 0.0 5.8 183 15.8 296
17:00 - 17:30 27.0 27.6 26.6 55 0.0 6.1 179 13.7 333
17:30 - 18:00 26.7 27.1 26.3 55 0.0 5.0 175 13.7 225
18:00 - 18:30 25.8 26.2 25.4 59 0.0 5.4 154 14.4 139
18:30 - 19:00 25.0 25.3 24.4 62 0.0 3.6 140 15.8 62
19:00 - 19:30 23.8 24.4 23.3 66 0.0 2.2 128 9.4 11
19:30 - 20:00 22.7 23.2 22.2 70 0.0 2.5 114 12.6 0
20:00 - 20:30 21.8 22.1 21.4 74 0.0 2.9 122 14.0 0
20:30 - 21:00 21.2 21.4 21.0 77 0.0 3.2 126 10.8 0
21:00 - 21:30 20.8 21.0 20.6 78 0.0 2.9 132 10.1 0
21:30 - 22:00 20.5 20.6 20.3 80 0.0 2.9 119 11.2 0

Les dades en taronja només han passat un control de qualitat automàtic. Resta pendent la seva validació definitiva.